sensor_id;sensor_type;location;lat;lon;timestamp;P1;durP1;ratioP1;P2;durP2;ratioP2
52786;SDS011;38661;53.152;5.846;2023-01-23T00:01:24;12.68;;;5.07;;
52786;SDS011;38661;53.152;5.846;2023-01-23T00:03:56;9.43;;;5.23;;
52786;SDS011;38661;53.152;5.846;2023-01-23T00:06:22;10.63;;;4.63;;
52786;SDS011;38661;53.152;5.846;2023-01-23T00:08:48;10.95;;;4.68;;
52786;SDS011;38661;53.152;5.846;2023-01-23T00:11:15;8.93;;;4.63;;
52786;SDS011;38661;53.152;5.846;2023-01-23T00:13:43;10.20;;;4.38;;
52786;SDS011;38661;53.152;5.846;2023-01-23T00:16:11;13.13;;;5.38;;
52786;SDS011;38661;53.152;5.846;2023-01-23T00:18:39;9.55;;;4.55;;
52786;SDS011;38661;53.152;5.846;2023-01-23T00:21:05;10.88;;;4.20;;
52786;SDS011;38661;53.152;5.846;2023-01-23T00:23:33;10.57;;;5.28;;
52786;SDS011;38661;53.152;5.846;2023-01-23T00:28:32;10.43;;;4.25;;
52786;SDS011;38661;53.152;5.846;2023-01-23T00:31:02;9.65;;;4.47;;
52786;SDS011;38661;53.152;5.846;2023-01-23T00:35:58;10.63;;;4.20;;
52786;SDS011;38661;53.152;5.846;2023-01-23T00:38:25;9.70;;;4.40;;
52786;SDS011;38661;53.152;5.846;2023-01-23T00:40:51;8.43;;;4.72;;
52786;SDS011;38661;53.152;5.846;2023-01-23T00:43:18;13.65;;;5.90;;
52786;SDS011;38661;53.152;5.846;2023-01-23T00:45:45;10.30;;;4.57;;
52786;SDS011;38661;53.152;5.846;2023-01-23T00:48:11;7.15;;;4.13;;
52786;SDS011;38661;53.152;5.846;2023-01-23T00:50:37;6.75;;;4.03;;
52786;SDS011;38661;53.152;5.846;2023-01-23T00:53:02;15.07;;;4.80;;
52786;SDS011;38661;53.152;5.846;2023-01-23T00:55:28;9.32;;;4.50;;
52786;SDS011;38661;53.152;5.846;2023-01-23T00:57:54;10.80;;;4.95;;
52786;SDS011;38661;53.152;5.846;2023-01-23T01:00:20;11.00;;;4.35;;
52786;SDS011;38661;53.152;5.846;2023-01-23T01:02:46;8.18;;;4.82;;
52786;SDS011;38661;53.152;5.846;2023-01-23T01:05:11;13.20;;;5.95;;
52786;SDS011;38661;53.152;5.846;2023-01-23T01:07:37;9.05;;;4.35;;
52786;SDS011;38661;53.152;5.846;2023-01-23T01:10:03;11.02;;;5.03;;
52786;SDS011;38661;53.152;5.846;2023-01-23T01:12:29;13.57;;;5.38;;
52786;SDS011;38661;53.152;5.846;2023-01-23T01:14:55;13.63;;;5.85;;
52786;SDS011;38661;53.152;5.846;2023-01-23T01:17:21;10.85;;;4.47;;
52786;SDS011;38661;53.152;5.846;2023-01-23T01:19:46;10.60;;;5.20;;
52786;SDS011;38661;53.152;5.846;2023-01-23T01:22:12;9.02;;;5.22;;
52786;SDS011;38661;53.152;5.846;2023-01-23T01:24:40;10.52;;;5.47;;
52786;SDS011;38661;53.152;5.846;2023-01-23T01:27:06;8.95;;;5.10;;
52786;SDS011;38661;53.152;5.846;2023-01-23T01:29:32;12.55;;;6.05;;
52786;SDS011;38661;53.152;5.846;2023-01-23T01:31:58;10.88;;;4.53;;
52786;SDS011;38661;53.152;5.846;2023-01-23T01:34:23;22.13;;;6.10;;
52786;SDS011;38661;53.152;5.846;2023-01-23T01:36:49;11.80;;;5.13;;
52786;SDS011;38661;53.152;5.846;2023-01-23T01:39:16;12.65;;;5.38;;
52786;SDS011;38661;53.152;5.846;2023-01-23T01:41:41;9.60;;;5.05;;
52786;SDS011;38661;53.152;5.846;2023-01-23T01:44:11;10.40;;;5.38;;
52786;SDS011;38661;53.152;5.846;2023-01-23T01:46:42;9.80;;;5.75;;
52786;SDS011;38661;53.152;5.846;2023-01-23T01:49:21;9.63;;;5.55;;
52786;SDS011;38661;53.152;5.846;2023-01-23T01:51:58;11.13;;;5.60;;
52786;SDS011;38661;53.152;5.846;2023-01-23T01:54:32;16.40;;;6.00;;
52786;SDS011;38661;53.152;5.846;2023-01-23T01:57:04;15.48;;;6.43;;
52786;SDS011;38661;53.152;5.846;2023-01-23T02:02:13;10.77;;;5.72;;
52786;SDS011;38661;53.152;5.846;2023-01-23T02:04:44;10.82;;;6.30;;
52786;SDS011;38661;53.152;5.846;2023-01-23T02:07:32;13.95;;;6.60;;
52786;SDS011;38661;53.152;5.846;2023-01-23T02:10:06;12.68;;;6.60;;
52786;SDS011;38661;53.152;5.846;2023-01-23T02:12:33;10.90;;;6.07;;
52786;SDS011;38661;53.152;5.846;2023-01-23T02:15:00;13.73;;;6.88;;
52786;SDS011;38661;53.152;5.846;2023-01-23T02:17:29;13.07;;;5.90;;
52786;SDS011;38661;53.152;5.846;2023-01-23T02:19:59;13.60;;;6.70;;
52786;SDS011;38661;53.152;5.846;2023-01-23T02:25:21;10.60;;;5.78;;
52786;SDS011;38661;53.152;5.846;2023-01-23T02:27:55;10.18;;;6.88;;
52786;SDS011;38661;53.152;5.846;2023-01-23T02:30:22;12.05;;;6.70;;
52786;SDS011;38661;53.152;5.846;2023-01-23T02:32:48;10.32;;;7.00;;
52786;SDS011;38661;53.152;5.846;2023-01-23T02:35:15;9.85;;;7.13;;
52786;SDS011;38661;53.152;5.846;2023-01-23T02:37:50;11.88;;;6.93;;
52786;SDS011;38661;53.152;5.846;2023-01-23T02:40:28;12.63;;;7.75;;
52786;SDS011;38661;53.152;5.846;2023-01-23T02:42:57;11.98;;;7.85;;
52786;SDS011;38661;53.152;5.846;2023-01-23T02:45:24;13.15;;;8.57;;
52786;SDS011;38661;53.152;5.846;2023-01-23T02:47:50;14.13;;;8.43;;
52786;SDS011;38661;53.152;5.846;2023-01-23T02:50:16;12.70;;;7.38;;
52786;SDS011;38661;53.152;5.846;2023-01-23T02:52:41;16.02;;;8.13;;
52786;SDS011;38661;53.152;5.846;2023-01-23T02:55:07;14.07;;;6.68;;
52786;SDS011;38661;53.152;5.846;2023-01-23T02:57:33;15.27;;;7.82;;
52786;SDS011;38661;53.152;5.846;2023-01-23T03:00:00;11.02;;;6.40;;
52786;SDS011;38661;53.152;5.846;2023-01-23T03:02:40;12.55;;;7.05;;
52786;SDS011;38661;53.152;5.846;2023-01-23T03:05:07;12.35;;;7.03;;
52786;SDS011;38661;53.152;5.846;2023-01-23T03:07:33;14.07;;;7.35;;
52786;SDS011;38661;53.152;5.846;2023-01-23T03:10:00;12.98;;;7.22;;
52786;SDS011;38661;53.152;5.846;2023-01-23T03:12:26;11.60;;;6.88;;
52786;SDS011;38661;53.152;5.846;2023-01-23T03:14:52;12.27;;;7.40;;
52786;SDS011;38661;53.152;5.846;2023-01-23T03:17:19;14.43;;;7.72;;
52786;SDS011;38661;53.152;5.846;2023-01-23T03:19:45;15.60;;;7.10;;
52786;SDS011;38661;53.152;5.846;2023-01-23T03:22:11;11.63;;;7.10;;
52786;SDS011;38661;53.152;5.846;2023-01-23T03:24:37;11.13;;;7.18;;
52786;SDS011;38661;53.152;5.846;2023-01-23T03:27:03;12.93;;;7.57;;
52786;SDS011;38661;53.152;5.846;2023-01-23T03:29:29;16.13;;;7.38;;
52786;SDS011;38661;53.152;5.846;2023-01-23T03:32:13;16.77;;;7.50;;
52786;SDS011;38661;53.152;5.846;2023-01-23T03:34:39;12.23;;;7.43;;
52786;SDS011;38661;53.152;5.846;2023-01-23T03:37:05;11.68;;;6.88;;
52786;SDS011;38661;53.152;5.846;2023-01-23T03:39:34;17.90;;;7.50;;
52786;SDS011;38661;53.152;5.846;2023-01-23T03:42:19;11.40;;;7.25;;
52786;SDS011;38661;53.152;5.846;2023-01-23T03:44:45;9.80;;;6.40;;
52786;SDS011;38661;53.152;5.846;2023-01-23T03:47:12;12.45;;;7.22;;
52786;SDS011;38661;53.152;5.846;2023-01-23T03:49:38;11.88;;;6.70;;
52786;SDS011;38661;53.152;5.846;2023-01-23T03:52:03;14.30;;;7.00;;
52786;SDS011;38661;53.152;5.846;2023-01-23T03:54:30;14.25;;;6.95;;
52786;SDS011;38661;53.152;5.846;2023-01-23T03:56:55;13.05;;;7.00;;
52786;SDS011;38661;53.152;5.846;2023-01-23T03:59:21;10.13;;;6.63;;
52786;SDS011;38661;53.152;5.846;2023-01-23T04:01:47;13.68;;;6.57;;
52786;SDS011;38661;53.152;5.846;2023-01-23T04:04:13;17.52;;;7.70;;
52786;SDS011;38661;53.152;5.846;2023-01-23T04:06:38;15.98;;;6.80;;
52786;SDS011;38661;53.152;5.846;2023-01-23T04:09:04;8.85;;;6.43;;
52786;SDS011;38661;53.152;5.846;2023-01-23T04:11:30;14.02;;;6.47;;
52786;SDS011;38661;53.152;5.846;2023-01-23T04:13:56;8.88;;;6.53;;
52786;SDS011;38661;53.152;5.846;2023-01-23T04:16:22;11.27;;;6.13;;
52786;SDS011;38661;53.152;5.846;2023-01-23T04:18:49;11.80;;;6.25;;
52786;SDS011;38661;53.152;5.846;2023-01-23T04:21:15;10.23;;;6.63;;
52786;SDS011;38661;53.152;5.846;2023-01-23T04:23:41;8.95;;;6.03;;
52786;SDS011;38661;53.152;5.846;2023-01-23T04:26:07;11.40;;;6.00;;
52786;SDS011;38661;53.152;5.846;2023-01-23T04:28:32;13.40;;;6.95;;
52786;SDS011;38661;53.152;5.846;2023-01-23T04:30:58;11.32;;;6.78;;
52786;SDS011;38661;53.152;5.846;2023-01-23T04:33:24;13.77;;;6.35;;
52786;SDS011;38661;53.152;5.846;2023-01-23T04:35:57;11.38;;;6.07;;
52786;SDS011;38661;53.152;5.846;2023-01-23T04:38:25;12.20;;;6.32;;
52786;SDS011;38661;53.152;5.846;2023-01-23T04:40:52;12.93;;;7.07;;
52786;SDS011;38661;53.152;5.846;2023-01-23T04:43:18;9.73;;;6.15;;
52786;SDS011;38661;53.152;5.846;2023-01-23T04:45:44;9.85;;;6.38;;
52786;SDS011;38661;53.152;5.846;2023-01-23T04:48:11;12.52;;;7.25;;
52786;SDS011;38661;53.152;5.846;2023-01-23T04:50:37;13.80;;;6.95;;
52786;SDS011;38661;53.152;5.846;2023-01-23T04:53:03;11.43;;;6.40;;
52786;SDS011;38661;53.152;5.846;2023-01-23T04:55:29;13.77;;;6.32;;
52786;SDS011;38661;53.152;5.846;2023-01-23T04:57:55;10.65;;;6.82;;
52786;SDS011;38661;53.152;5.846;2023-01-23T05:00:21;10.20;;;6.13;;
52786;SDS011;38661;53.152;5.846;2023-01-23T05:02:47;9.95;;;5.53;;
52786;SDS011;38661;53.152;5.846;2023-01-23T05:05:14;11.35;;;6.80;;
52786;SDS011;38661;53.152;5.846;2023-01-23T05:07:42;12.48;;;6.53;;
52786;SDS011;38661;53.152;5.846;2023-01-23T05:10:08;10.52;;;7.30;;
52786;SDS011;38661;53.152;5.846;2023-01-23T05:12:35;14.07;;;7.07;;
52786;SDS011;38661;53.152;5.846;2023-01-23T05:15:01;13.93;;;6.70;;
52786;SDS011;38661;53.152;5.846;2023-01-23T05:17:27;9.70;;;6.78;;
52786;SDS011;38661;53.152;5.846;2023-01-23T05:19:52;13.07;;;6.95;;
52786;SDS011;38661;53.152;5.846;2023-01-23T05:22:18;11.80;;;7.68;;
52786;SDS011;38661;53.152;5.846;2023-01-23T05:24:44;11.60;;;6.53;;
52786;SDS011;38661;53.152;5.846;2023-01-23T05:27:10;12.82;;;7.63;;
52786;SDS011;38661;53.152;5.846;2023-01-23T05:29:36;11.18;;;7.25;;
52786;SDS011;38661;53.152;5.846;2023-01-23T05:32:02;10.35;;;7.10;;
52786;SDS011;38661;53.152;5.846;2023-01-23T05:34:28;15.60;;;7.80;;
52786;SDS011;38661;53.152;5.846;2023-01-23T05:36:53;11.10;;;7.93;;
52786;SDS011;38661;53.152;5.846;2023-01-23T05:39:19;12.65;;;8.52;;
52786;SDS011;38661;53.152;5.846;2023-01-23T05:41:46;11.32;;;6.93;;
52786;SDS011;38661;53.152;5.846;2023-01-23T05:44:12;12.55;;;6.80;;
52786;SDS011;38661;53.152;5.846;2023-01-23T05:46:37;15.75;;;7.63;;
52786;SDS011;38661;53.152;5.846;2023-01-23T05:49:03;11.90;;;6.78;;
52786;SDS011;38661;53.152;5.846;2023-01-23T05:51:29;13.70;;;7.65;;
52786;SDS011;38661;53.152;5.846;2023-01-23T05:53:58;12.07;;;7.00;;
52786;SDS011;38661;53.152;5.846;2023-01-23T05:56:28;11.60;;;6.95;;
52786;SDS011;38661;53.152;5.846;2023-01-23T05:58:53;15.55;;;7.15;;
52786;SDS011;38661;53.152;5.846;2023-01-23T06:01:19;13.05;;;7.25;;
52786;SDS011;38661;53.152;5.846;2023-01-23T06:03:46;13.00;;;7.95;;
52786;SDS011;38661;53.152;5.846;2023-01-23T06:06:12;13.48;;;7.57;;
52786;SDS011;38661;53.152;5.846;2023-01-23T06:08:38;10.43;;;8.05;;
52786;SDS011;38661;53.152;5.846;2023-01-23T06:11:04;15.00;;;8.80;;
52786;SDS011;38661;53.152;5.846;2023-01-23T06:13:30;12.93;;;8.27;;
52786;SDS011;38661;53.152;5.846;2023-01-23T06:15:56;14.70;;;8.55;;
52786;SDS011;38661;53.152;5.846;2023-01-23T06:18:22;13.20;;;8.30;;
52786;SDS011;38661;53.152;5.846;2023-01-23T06:20:47;12.20;;;8.02;;
52786;SDS011;38661;53.152;5.846;2023-01-23T06:23:13;17.45;;;9.57;;
52786;SDS011;38661;53.152;5.846;2023-01-23T06:25:40;16.27;;;8.48;;
52786;SDS011;38661;53.152;5.846;2023-01-23T06:28:06;15.75;;;9.60;;
52786;SDS011;38661;53.152;5.846;2023-01-23T06:30:32;15.35;;;10.15;;
52786;SDS011;38661;53.152;5.846;2023-01-23T06:32:58;17.00;;;9.60;;
52786;SDS011;38661;53.152;5.846;2023-01-23T06:35:24;17.35;;;10.93;;
52786;SDS011;38661;53.152;5.846;2023-01-23T06:37:50;17.30;;;10.48;;
52786;SDS011;38661;53.152;5.846;2023-01-23T06:40:15;16.73;;;10.88;;
52786;SDS011;38661;53.152;5.846;2023-01-23T06:42:42;17.60;;;10.90;;
52786;SDS011;38661;53.152;5.846;2023-01-23T06:45:09;22.17;;;11.48;;
52786;SDS011;38661;53.152;5.846;2023-01-23T06:47:35;18.30;;;11.82;;
52786;SDS011;38661;53.152;5.846;2023-01-23T06:50:01;19.80;;;10.20;;
52786;SDS011;38661;53.152;5.846;2023-01-23T06:52:28;17.52;;;11.02;;
52786;SDS011;38661;53.152;5.846;2023-01-23T06:54:53;14.43;;;9.95;;
52786;SDS011;38661;53.152;5.846;2023-01-23T06:57:19;16.58;;;10.15;;
52786;SDS011;38661;53.152;5.846;2023-01-23T06:59:45;18.10;;;11.80;;
52786;SDS011;38661;53.152;5.846;2023-01-23T07:02:11;16.33;;;10.80;;
52786;SDS011;38661;53.152;5.846;2023-01-23T07:04:37;19.50;;;11.10;;
52786;SDS011;38661;53.152;5.846;2023-01-23T07:07:03;19.55;;;11.45;;
52786;SDS011;38661;53.152;5.846;2023-01-23T07:09:28;15.85;;;10.32;;
52786;SDS011;38661;53.152;5.846;2023-01-23T07:11:54;18.20;;;10.55;;
52786;SDS011;38661;53.152;5.846;2023-01-23T07:14:20;17.50;;;10.05;;
52786;SDS011;38661;53.152;5.846;2023-01-23T07:16:46;18.45;;;11.45;;
52786;SDS011;38661;53.152;5.846;2023-01-23T07:19:12;19.40;;;10.30;;
52786;SDS011;38661;53.152;5.846;2023-01-23T07:21:37;15.75;;;10.13;;
52786;SDS011;38661;53.152;5.846;2023-01-23T07:24:03;16.00;;;9.45;;
52786;SDS011;38661;53.152;5.846;2023-01-23T07:26:29;14.27;;;10.30;;
52786;SDS011;38661;53.152;5.846;2023-01-23T07:28:55;16.25;;;10.95;;
52786;SDS011;38661;53.152;5.846;2023-01-23T07:31:20;19.23;;;10.65;;
52786;SDS011;38661;53.152;5.846;2023-01-23T07:33:46;16.15;;;11.35;;
52786;SDS011;38661;53.152;5.846;2023-01-23T07:36:12;15.52;;;10.00;;
52786;SDS011;38661;53.152;5.846;2023-01-23T07:38:38;21.40;;;12.93;;
52786;SDS011;38661;53.152;5.846;2023-01-23T07:41:05;16.63;;;11.02;;
52786;SDS011;38661;53.152;5.846;2023-01-23T07:43:30;16.05;;;10.95;;
52786;SDS011;38661;53.152;5.846;2023-01-23T07:45:59;17.30;;;11.35;;
52786;SDS011;38661;53.152;5.846;2023-01-23T07:48:26;17.75;;;11.35;;
52786;SDS011;38661;53.152;5.846;2023-01-23T07:50:52;21.23;;;13.02;;
52786;SDS011;38661;53.152;5.846;2023-01-23T07:53:18;18.80;;;12.77;;
52786;SDS011;38661;53.152;5.846;2023-01-23T07:55:44;21.08;;;13.13;;
52786;SDS011;38661;53.152;5.846;2023-01-23T07:58:09;22.20;;;13.25;;
52786;SDS011;38661;53.152;5.846;2023-01-23T08:00:35;23.25;;;12.68;;
52786;SDS011;38661;53.152;5.846;2023-01-23T08:03:01;21.75;;;12.75;;
52786;SDS011;38661;53.152;5.846;2023-01-23T08:05:27;21.98;;;13.30;;
52786;SDS011;38661;53.152;5.846;2023-01-23T08:07:53;20.55;;;13.02;;
52786;SDS011;38661;53.152;5.846;2023-01-23T08:10:18;24.70;;;13.32;;
52786;SDS011;38661;53.152;5.846;2023-01-23T08:12:44;22.50;;;13.77;;
52786;SDS011;38661;53.152;5.846;2023-01-23T08:15:11;20.63;;;12.85;;
52786;SDS011;38661;53.152;5.846;2023-01-23T08:17:37;19.77;;;12.57;;
52786;SDS011;38661;53.152;5.846;2023-01-23T08:20:02;22.10;;;13.60;;
52786;SDS011;38661;53.152;5.846;2023-01-23T08:22:28;22.83;;;13.65;;
52786;SDS011;38661;53.152;5.846;2023-01-23T08:24:54;20.70;;;13.80;;
52786;SDS011;38661;53.152;5.846;2023-01-23T08:27:20;24.25;;;13.68;;
52786;SDS011;38661;53.152;5.846;2023-01-23T08:29:46;21.70;;;12.98;;
52786;SDS011;38661;53.152;5.846;2023-01-23T08:32:12;19.77;;;12.07;;
52786;SDS011;38661;53.152;5.846;2023-01-23T08:34:37;24.23;;;13.52;;
52786;SDS011;38661;53.152;5.846;2023-01-23T08:37:03;18.92;;;12.23;;
52786;SDS011;38661;53.152;5.846;2023-01-23T08:39:29;18.90;;;11.95;;
52786;SDS011;38661;53.152;5.846;2023-01-23T08:41:55;25.92;;;12.88;;
52786;SDS011;38661;53.152;5.846;2023-01-23T08:44:20;19.77;;;12.32;;
52786;SDS011;38661;53.152;5.846;2023-01-23T08:46:47;20.90;;;12.63;;
52786;SDS011;38661;53.152;5.846;2023-01-23T08:49:13;23.50;;;12.40;;
52786;SDS011;38661;53.152;5.846;2023-01-23T08:51:38;20.85;;;12.35;;
52786;SDS011;38661;53.152;5.846;2023-01-23T08:54:04;21.48;;;13.18;;
52786;SDS011;38661;53.152;5.846;2023-01-23T08:56:30;15.73;;;10.02;;
52786;SDS011;38661;53.152;5.846;2023-01-23T08:58:56;23.58;;;12.10;;
52786;SDS011;38661;53.152;5.846;2023-01-23T09:01:22;19.77;;;12.77;;
52786;SDS011;38661;53.152;5.846;2023-01-23T09:03:49;22.48;;;14.10;;
52786;SDS011;38661;53.152;5.846;2023-01-23T09:06:16;17.80;;;12.23;;
52786;SDS011;38661;53.152;5.846;2023-01-23T09:08:43;23.55;;;12.50;;
52786;SDS011;38661;53.152;5.846;2023-01-23T09:11:10;16.45;;;11.52;;
52786;SDS011;38661;53.152;5.846;2023-01-23T09:13:37;20.88;;;11.57;;
52786;SDS011;38661;53.152;5.846;2023-01-23T09:16:03;24.52;;;13.65;;
52786;SDS011;38661;53.152;5.846;2023-01-23T09:18:29;23.70;;;15.02;;
52786;SDS011;38661;53.152;5.846;2023-01-23T09:20:55;22.05;;;11.90;;
52786;SDS011;38661;53.152;5.846;2023-01-23T09:23:21;29.17;;;14.10;;
52786;SDS011;38661;53.152;5.846;2023-01-23T09:25:47;21.90;;;11.88;;
52786;SDS011;38661;53.152;5.846;2023-01-23T09:28:13;16.88;;;11.13;;
52786;SDS011;38661;53.152;5.846;2023-01-23T09:30:39;21.45;;;12.18;;
52786;SDS011;38661;53.152;5.846;2023-01-23T09:33:05;21.52;;;11.68;;
52786;SDS011;38661;53.152;5.846;2023-01-23T09:35:31;20.50;;;12.13;;
52786;SDS011;38661;53.152;5.846;2023-01-23T09:37:57;19.52;;;10.75;;
52786;SDS011;38661;53.152;5.846;2023-01-23T09:40:29;15.98;;;10.70;;
52786;SDS011;38661;53.152;5.846;2023-01-23T09:43:00;19.42;;;11.80;;
52786;SDS011;38661;53.152;5.846;2023-01-23T09:45:29;16.58;;;11.75;;
52786;SDS011;38661;53.152;5.846;2023-01-23T09:48:04;23.38;;;11.32;;
52786;SDS011;38661;53.152;5.846;2023-01-23T09:50:39;19.45;;;11.88;;
52786;SDS011;38661;53.152;5.846;2023-01-23T09:53:17;17.63;;;12.02;;
52786;SDS011;38661;53.152;5.846;2023-01-23T10:00:52;16.40;;;10.63;;
52786;SDS011;38661;53.152;5.846;2023-01-23T10:03:17;15.20;;;10.90;;
52786;SDS011;38661;53.152;5.846;2023-01-23T10:05:52;18.45;;;10.77;;
52786;SDS011;38661;53.152;5.846;2023-01-23T10:08:48;15.20;;;9.88;;
52786;SDS011;38661;53.152;5.846;2023-01-23T10:11:20;16.58;;;10.85;;
52786;SDS011;38661;53.152;5.846;2023-01-23T10:25:56;18.80;;;10.85;;
52786;SDS011;38661;53.152;5.846;2023-01-23T10:28:34;18.23;;;11.65;;
52786;SDS011;38661;53.152;5.846;2023-01-23T10:31:07;22.92;;;11.70;;
52786;SDS011;38661;53.152;5.846;2023-01-23T10:33:44;15.48;;;10.57;;
52786;SDS011;38661;53.152;5.846;2023-01-23T10:38:59;20.38;;;10.98;;
52786;SDS011;38661;53.152;5.846;2023-01-23T10:41:38;17.58;;;9.80;;
52786;SDS011;38661;53.152;5.846;2023-01-23T10:44:07;15.25;;;9.82;;
52786;SDS011;38661;53.152;5.846;2023-01-23T10:46:48;13.85;;;9.70;;
52786;SDS011;38661;53.152;5.846;2023-01-23T10:49:32;15.77;;;10.18;;
52786;SDS011;38661;53.152;5.846;2023-01-23T10:51:59;13.55;;;9.23;;
52786;SDS011;38661;53.152;5.846;2023-01-23T10:54:25;14.60;;;8.95;;
52786;SDS011;38661;53.152;5.846;2023-01-23T10:56:54;13.35;;;8.98;;
52786;SDS011;38661;53.152;5.846;2023-01-23T11:02:35;13.70;;;9.43;;
52786;SDS011;38661;53.152;5.846;2023-01-23T11:08:00;12.85;;;8.38;;
52786;SDS011;38661;53.152;5.846;2023-01-23T11:10:26;14.10;;;8.38;;
52786;SDS011;38661;53.152;5.846;2023-01-23T11:12:52;10.68;;;8.00;;
52786;SDS011;38661;53.152;5.846;2023-01-23T11:17:58;10.20;;;7.15;;
52786;SDS011;38661;53.152;5.846;2023-01-23T11:20:27;11.30;;;7.13;;
52786;SDS011;38661;53.152;5.846;2023-01-23T11:25:39;10.15;;;6.65;;
52786;SDS011;38661;53.152;5.846;2023-01-23T11:33:44;8.20;;;5.28;;
52786;SDS011;38661;53.152;5.846;2023-01-23T11:39:21;5.75;;;4.10;;
52786;SDS011;38661;53.152;5.846;2023-01-23T11:41:57;5.57;;;4.20;;
52786;SDS011;38661;53.152;5.846;2023-01-23T11:44:23;6.75;;;4.78;;
52786;SDS011;38661;53.152;5.846;2023-01-23T12:02:59;2.60;;;2.28;;
52786;SDS011;38661;53.152;5.846;2023-01-23T12:08:26;2.63;;;2.13;;
52786;SDS011;38661;53.152;5.846;2023-01-23T12:11:02;3.60;;;3.05;;
52786;SDS011;38661;53.152;5.846;2023-01-23T12:25:31;6.45;;;3.55;;
52786;SDS011;38661;53.152;5.846;2023-01-23T12:28:10;10.13;;;5.82;;
52786;SDS011;38661;53.152;5.846;2023-01-23T12:44:54;4.07;;;3.33;;
52786;SDS011;38661;53.152;5.846;2023-01-23T12:47:23;3.65;;;3.15;;
52786;SDS011;38661;53.152;5.846;2023-01-23T12:50:36;4.82;;;3.47;;
52786;SDS011;38661;53.152;5.846;2023-01-23T12:53:10;4.72;;;3.63;;
52786;SDS011;38661;53.152;5.846;2023-01-23T12:55:40;5.45;;;3.35;;
52786;SDS011;38661;53.152;5.846;2023-01-23T12:58:28;6.00;;;3.95;;
52786;SDS011;38661;53.152;5.846;2023-01-23T13:01:59;5.25;;;4.10;;
52786;SDS011;38661;53.152;5.846;2023-01-23T13:06:55;6.10;;;4.97;;
52786;SDS011;38661;53.152;5.846;2023-01-23T13:09:35;5.95;;;5.25;;
52786;SDS011;38661;53.152;5.846;2023-01-23T13:14:45;6.72;;;5.05;;
52786;SDS011;38661;53.152;5.846;2023-01-23T13:17:29;6.55;;;4.80;;
52786;SDS011;38661;53.152;5.846;2023-01-23T13:20:13;5.93;;;4.93;;
52786;SDS011;38661;53.152;5.846;2023-01-23T13:36:45;8.18;;;5.75;;
52786;SDS011;38661;53.152;5.846;2023-01-23T13:39:25;7.00;;;6.30;;
52786;SDS011;38661;53.152;5.846;2023-01-23T13:45:12;7.40;;;5.72;;
52786;SDS011;38661;53.152;5.846;2023-01-23T13:50:57;7.65;;;6.28;;
52786;SDS011;38661;53.152;5.846;2023-01-23T13:53:42;7.15;;;6.40;;
52786;SDS011;38661;53.152;5.846;2023-01-23T13:56:28;8.85;;;6.30;;
52786;SDS011;38661;53.152;5.846;2023-01-23T13:59:23;7.18;;;6.05;;
52786;SDS011;38661;53.152;5.846;2023-01-23T14:01:51;9.70;;;6.63;;
52786;SDS011;38661;53.152;5.846;2023-01-23T14:04:46;7.13;;;6.03;;
52786;SDS011;38661;53.152;5.846;2023-01-23T14:07:37;7.63;;;6.80;;
52786;SDS011;38661;53.152;5.846;2023-01-23T14:10:24;8.48;;;6.75;;
52786;SDS011;38661;53.152;5.846;2023-01-23T14:15:45;10.70;;;7.22;;
52786;SDS011;38661;53.152;5.846;2023-01-23T14:18:33;7.18;;;6.47;;
52786;SDS011;38661;53.152;5.846;2023-01-23T14:23:52;7.97;;;6.78;;
52786;SDS011;38661;53.152;5.846;2023-01-23T14:26:23;10.80;;;7.28;;
52786;SDS011;38661;53.152;5.846;2023-01-23T14:28:51;9.60;;;7.63;;
52786;SDS011;38661;53.152;5.846;2023-01-23T14:31:23;7.70;;;6.80;;
52786;SDS011;38661;53.152;5.846;2023-01-23T14:33:54;7.10;;;6.20;;
52786;SDS011;38661;53.152;5.846;2023-01-23T14:36:32;8.68;;;7.05;;
52786;SDS011;38661;53.152;5.846;2023-01-23T14:39:00;8.45;;;6.90;;
52786;SDS011;38661;53.152;5.846;2023-01-23T14:41:31;7.40;;;6.45;;
52786;SDS011;38661;53.152;5.846;2023-01-23T14:44:03;7.97;;;6.60;;
52786;SDS011;38661;53.152;5.846;2023-01-23T14:49:01;5.47;;;4.65;;
52786;SDS011;38661;53.152;5.846;2023-01-23T14:51:29;5.43;;;4.32;;
52786;SDS011;38661;53.152;5.846;2023-01-23T14:53:56;5.70;;;5.05;;
52786;SDS011;38661;53.152;5.846;2023-01-23T14:56:25;6.20;;;5.43;;
52786;SDS011;38661;53.152;5.846;2023-01-23T14:58:56;6.28;;;5.40;;
52786;SDS011;38661;53.152;5.846;2023-01-23T15:01:25;7.25;;;5.50;;
52786;SDS011;38661;53.152;5.846;2023-01-23T15:03:59;6.22;;;5.63;;
52786;SDS011;38661;53.152;5.846;2023-01-23T15:06:30;7.97;;;5.88;;
52786;SDS011;38661;53.152;5.846;2023-01-23T15:12:09;6.57;;;5.35;;
52786;SDS011;38661;53.152;5.846;2023-01-23T15:14:40;8.80;;;6.55;;
52786;SDS011;38661;53.152;5.846;2023-01-23T15:17:15;8.15;;;7.32;;
52786;SDS011;38661;53.152;5.846;2023-01-23T15:19:47;8.10;;;6.25;;
52786;SDS011;38661;53.152;5.846;2023-01-23T15:22:20;6.43;;;5.55;;
52786;SDS011;38661;53.152;5.846;2023-01-23T15:24:49;7.32;;;6.15;;
52786;SDS011;38661;53.152;5.846;2023-01-23T15:27:32;8.75;;;7.78;;
52786;SDS011;38661;53.152;5.846;2023-01-23T15:33:03;6.57;;;5.65;;
52786;SDS011;38661;53.152;5.846;2023-01-23T15:35:33;7.05;;;5.10;;
52786;SDS011;38661;53.152;5.846;2023-01-23T15:37:59;7.13;;;5.72;;
52786;SDS011;38661;53.152;5.846;2023-01-23T15:40:29;7.60;;;5.93;;
52786;SDS011;38661;53.152;5.846;2023-01-23T15:43:01;6.70;;;5.63;;
52786;SDS011;38661;53.152;5.846;2023-01-23T15:45:34;8.05;;;6.10;;
52786;SDS011;38661;53.152;5.846;2023-01-23T15:48:00;6.90;;;5.53;;
52786;SDS011;38661;53.152;5.846;2023-01-23T15:50:25;8.25;;;6.25;;
52786;SDS011;38661;53.152;5.846;2023-01-23T15:52:52;7.22;;;5.82;;
52786;SDS011;38661;53.152;5.846;2023-01-23T15:55:20;8.82;;;6.90;;
52786;SDS011;38661;53.152;5.846;2023-01-23T15:57:47;7.18;;;6.28;;
52786;SDS011;38661;53.152;5.846;2023-01-23T16:00:23;8.88;;;6.65;;
52786;SDS011;38661;53.152;5.846;2023-01-23T16:02:51;7.32;;;6.45;;
52786;SDS011;38661;53.152;5.846;2023-01-23T16:05:18;9.18;;;7.75;;
52786;SDS011;38661;53.152;5.846;2023-01-23T16:07:44;9.55;;;7.38;;
52786;SDS011;38661;53.152;5.846;2023-01-23T16:10:28;8.02;;;6.95;;
52786;SDS011;38661;53.152;5.846;2023-01-23T16:12:57;7.30;;;6.40;;
52786;SDS011;38661;53.152;5.846;2023-01-23T16:15:30;7.70;;;6.25;;
52786;SDS011;38661;53.152;5.846;2023-01-23T16:17:58;8.20;;;6.97;;
52786;SDS011;38661;53.152;5.846;2023-01-23T16:22:50;12.70;;;8.10;;
52786;SDS011;38661;53.152;5.846;2023-01-23T16:25:24;9.90;;;7.10;;
52786;SDS011;38661;53.152;5.846;2023-01-23T16:27:57;8.63;;;7.35;;
52786;SDS011;38661;53.152;5.846;2023-01-23T16:30:24;8.27;;;7.40;;
52786;SDS011;38661;53.152;5.846;2023-01-23T16:32:51;11.57;;;9.02;;
52786;SDS011;38661;53.152;5.846;2023-01-23T16:35:18;12.38;;;9.13;;
52786;SDS011;38661;53.152;5.846;2023-01-23T16:37:46;12.05;;;9.65;;
52786;SDS011;38661;53.152;5.846;2023-01-23T16:40:15;13.00;;;9.75;;
52786;SDS011;38661;53.152;5.846;2023-01-23T16:42:44;11.27;;;9.15;;
52786;SDS011;38661;53.152;5.846;2023-01-23T16:45:22;13.10;;;10.75;;
52786;SDS011;38661;53.152;5.846;2023-01-23T16:47:49;12.75;;;9.15;;
52786;SDS011;38661;53.152;5.846;2023-01-23T16:50:16;10.65;;;8.07;;
52786;SDS011;38661;53.152;5.846;2023-01-23T16:52:47;10.50;;;8.65;;
52786;SDS011;38661;53.152;5.846;2023-01-23T16:55:21;9.03;;;7.83;;
52786;SDS011;38661;53.152;5.846;2023-01-23T16:57:49;11.65;;;8.00;;
52786;SDS011;38661;53.152;5.846;2023-01-23T17:00:19;12.30;;;8.13;;
52786;SDS011;38661;53.152;5.846;2023-01-23T17:02:50;10.07;;;7.55;;
52786;SDS011;38661;53.152;5.846;2023-01-23T17:05:18;10.95;;;8.02;;